North Syracuse, New York
Current Conditions -  °F | °C
As of 1:54 PM on Monday 20 Oct 2014 (Local Time) from KSYR Reporting Station
Overcast Overcast  
Wind Chill: 57°   Ceiling: 8000
Heat Index: 57°   Visibility: 10mi
Dew Point: 39°   Wind: 8mph
Humidity: 52%   Direction: 210°SSW
Pressure: 29.89"   Gusts: NA
Location:  43.1273°N, 76.1307°W
Report Text: KSYR 201754Z 21007KT 10SM SCT028 BKN080 OVC120 14/04 A2989 RMK SLP120 T01390041 10139 20062 58024
Loading
Personal Weather Stations






























Interactive Weather Map
Tropical Storm Tracking
New forecast layout! Learn more

10-Day Weather Forecast

Advertisements
Track Severe Weather on mobile